sensor_id;sensor_type;location;lat;lon;timestamp;P1;durP1;ratioP1;P2;durP2;ratioP2
16922;SDS011;8578;50.938;13.556;2022-09-30T00:01:55;7.40;;;3.13;;
16922;SDS011;8578;50.938;13.556;2022-09-30T00:04:23;7.00;;;3.40;;
16922;SDS011;8578;50.938;13.556;2022-09-30T00:06:51;4.70;;;2.93;;
16922;SDS011;8578;50.938;13.556;2022-09-30T00:09:19;3.80;;;2.70;;
16922;SDS011;8578;50.938;13.556;2022-09-30T00:11:49;5.33;;;2.77;;
16922;SDS011;8578;50.938;13.556;2022-09-30T00:14:17;3.47;;;2.60;;
16922;SDS011;8578;50.938;13.556;2022-09-30T00:16:45;5.33;;;3.00;;
16922;SDS011;8578;50.938;13.556;2022-09-30T00:19:12;4.50;;;2.87;;
16922;SDS011;8578;50.938;13.556;2022-09-30T00:21:40;5.90;;;3.17;;
16922;SDS011;8578;50.938;13.556;2022-09-30T00:24:08;6.33;;;3.10;;
16922;SDS011;8578;50.938;13.556;2022-09-30T00:26:35;8.60;;;2.83;;
16922;SDS011;8578;50.938;13.556;2022-09-30T00:29:04;4.40;;;3.10;;
16922;SDS011;8578;50.938;13.556;2022-09-30T00:31:32;5.97;;;3.20;;
16922;SDS011;8578;50.938;13.556;2022-09-30T00:34:01;5.17;;;2.57;;
16922;SDS011;8578;50.938;13.556;2022-09-30T00:36:35;3.57;;;2.43;;
16922;SDS011;8578;50.938;13.556;2022-09-30T00:39:03;6.67;;;3.07;;
16922;SDS011;8578;50.938;13.556;2022-09-30T00:41:31;5.77;;;2.90;;
16922;SDS011;8578;50.938;13.556;2022-09-30T00:43:59;5.17;;;2.67;;
16922;SDS011;8578;50.938;13.556;2022-09-30T00:46:30;4.00;;;2.67;;
16922;SDS011;8578;50.938;13.556;2022-09-30T00:48:59;3.93;;;2.60;;
16922;SDS011;8578;50.938;13.556;2022-09-30T00:51:29;4.87;;;2.50;;
16922;SDS011;8578;50.938;13.556;2022-09-30T00:53:59;3.13;;;2.47;;
16922;SDS011;8578;50.938;13.556;2022-09-30T00:56:29;3.73;;;2.67;;
16922;SDS011;8578;50.938;13.556;2022-09-30T00:59:00;3.37;;;2.67;;
16922;SDS011;8578;50.938;13.556;2022-09-30T01:01:30;4.00;;;2.77;;
16922;SDS011;8578;50.938;13.556;2022-09-30T01:03:58;3.50;;;2.53;;
16922;SDS011;8578;50.938;13.556;2022-09-30T01:06:26;4.40;;;3.27;;
16922;SDS011;8578;50.938;13.556;2022-09-30T01:08:54;6.67;;;2.83;;
16922;SDS011;8578;50.938;13.556;2022-09-30T01:11:23;7.57;;;2.77;;
16922;SDS011;8578;50.938;13.556;2022-09-30T01:14:02;3.60;;;2.60;;
16922;SDS011;8578;50.938;13.556;2022-09-30T01:16:41;6.40;;;3.20;;
16922;SDS011;8578;50.938;13.556;2022-09-30T01:19:16;8.67;;;2.73;;
16922;SDS011;8578;50.938;13.556;2022-09-30T01:21:56;8.80;;;3.07;;
16922;SDS011;8578;50.938;13.556;2022-09-30T01:24:44;6.80;;;3.13;;
16922;SDS011;8578;50.938;13.556;2022-09-30T01:27:15;3.50;;;2.60;;
16922;SDS011;8578;50.938;13.556;2022-09-30T01:32:36;7.50;;;3.20;;
16922;SDS011;8578;50.938;13.556;2022-09-30T01:35:08;5.53;;;2.93;;
16922;SDS011;8578;50.938;13.556;2022-09-30T01:37:42;5.83;;;3.00;;
16922;SDS011;8578;50.938;13.556;2022-09-30T01:40:12;5.43;;;2.77;;
16922;SDS011;8578;50.938;13.556;2022-09-30T01:42:50;6.87;;;3.40;;
16922;SDS011;8578;50.938;13.556;2022-09-30T01:45:20;6.47;;;3.00;;
16922;SDS011;8578;50.938;13.556;2022-09-30T01:47:54;4.50;;;3.23;;
16922;SDS011;8578;50.938;13.556;2022-09-30T01:50:26;6.90;;;3.03;;
16922;SDS011;8578;50.938;13.556;2022-09-30T01:52:57;6.03;;;2.90;;
16922;SDS011;8578;50.938;13.556;2022-09-30T01:55:30;7.77;;;2.97;;
16922;SDS011;8578;50.938;13.556;2022-09-30T01:58:00;4.00;;;2.80;;
16922;SDS011;8578;50.938;13.556;2022-09-30T02:00:30;4.53;;;2.97;;
16922;SDS011;8578;50.938;13.556;2022-09-30T02:03:00;5.20;;;2.90;;
16922;SDS011;8578;50.938;13.556;2022-09-30T02:05:29;4.63;;;2.90;;
16922;SDS011;8578;50.938;13.556;2022-09-30T02:07:59;5.07;;;2.73;;
16922;SDS011;8578;50.938;13.556;2022-09-30T02:10:28;4.67;;;2.50;;
16922;SDS011;8578;50.938;13.556;2022-09-30T02:13:01;2.80;;;2.43;;
16922;SDS011;8578;50.938;13.556;2022-09-30T02:15:31;9.77;;;3.17;;
16922;SDS011;8578;50.938;13.556;2022-09-30T02:18:08;3.63;;;2.53;;
16922;SDS011;8578;50.938;13.556;2022-09-30T02:20:38;4.33;;;2.70;;
16922;SDS011;8578;50.938;13.556;2022-09-30T02:23:08;4.03;;;2.87;;
16922;SDS011;8578;50.938;13.556;2022-09-30T02:25:38;3.80;;;2.60;;
16922;SDS011;8578;50.938;13.556;2022-09-30T02:28:10;4.17;;;2.57;;
16922;SDS011;8578;50.938;13.556;2022-09-30T02:30:40;5.43;;;2.67;;
16922;SDS011;8578;50.938;13.556;2022-09-30T02:33:11;5.83;;;2.37;;
16922;SDS011;8578;50.938;13.556;2022-09-30T02:35:43;3.00;;;2.40;;
16922;SDS011;8578;50.938;13.556;2022-09-30T02:38:12;3.23;;;2.47;;
16922;SDS011;8578;50.938;13.556;2022-09-30T02:40:42;3.30;;;2.13;;
16922;SDS011;8578;50.938;13.556;2022-09-30T02:43:13;4.10;;;2.70;;
16922;SDS011;8578;50.938;13.556;2022-09-30T02:45:42;4.87;;;2.50;;
16922;SDS011;8578;50.938;13.556;2022-09-30T02:48:13;2.87;;;2.50;;
16922;SDS011;8578;50.938;13.556;2022-09-30T02:50:46;3.10;;;2.40;;
16922;SDS011;8578;50.938;13.556;2022-09-30T02:53:17;5.20;;;2.93;;
16922;SDS011;8578;50.938;13.556;2022-09-30T02:55:51;4.63;;;2.70;;
16922;SDS011;8578;50.938;13.556;2022-09-30T02:58:22;5.93;;;2.83;;
16922;SDS011;8578;50.938;13.556;2022-09-30T03:00:51;7.83;;;2.70;;
16922;SDS011;8578;50.938;13.556;2022-09-30T03:03:21;3.63;;;2.50;;
16922;SDS011;8578;50.938;13.556;2022-09-30T03:05:51;4.13;;;2.70;;
16922;SDS011;8578;50.938;13.556;2022-09-30T03:08:19;4.23;;;2.60;;
16922;SDS011;8578;50.938;13.556;2022-09-30T03:10:47;6.87;;;2.77;;
16922;SDS011;8578;50.938;13.556;2022-09-30T03:13:20;3.67;;;2.93;;
16922;SDS011;8578;50.938;13.556;2022-09-30T03:15:54;3.67;;;2.70;;
16922;SDS011;8578;50.938;13.556;2022-09-30T03:18:32;5.53;;;2.50;;
16922;SDS011;8578;50.938;13.556;2022-09-30T03:21:05;5.90;;;3.00;;
16922;SDS011;8578;50.938;13.556;2022-09-30T03:23:48;5.03;;;3.10;;
16922;SDS011;8578;50.938;13.556;2022-09-30T03:26:21;4.50;;;3.00;;
16922;SDS011;8578;50.938;13.556;2022-09-30T03:28:57;3.60;;;2.80;;
16922;SDS011;8578;50.938;13.556;2022-09-30T03:31:29;5.57;;;3.20;;
16922;SDS011;8578;50.938;13.556;2022-09-30T03:34:03;4.60;;;3.47;;
16922;SDS011;8578;50.938;13.556;2022-09-30T03:36:37;5.67;;;3.30;;
16922;SDS011;8578;50.938;13.556;2022-09-30T03:39:10;6.90;;;3.27;;
16922;SDS011;8578;50.938;13.556;2022-09-30T03:41:44;4.73;;;2.80;;
16922;SDS011;8578;50.938;13.556;2022-09-30T03:44:14;3.60;;;2.77;;
16922;SDS011;8578;50.938;13.556;2022-09-30T03:46:45;5.10;;;2.87;;
16922;SDS011;8578;50.938;13.556;2022-09-30T03:49:16;4.37;;;3.10;;
16922;SDS011;8578;50.938;13.556;2022-09-30T03:51:46;4.67;;;3.30;;
16922;SDS011;8578;50.938;13.556;2022-09-30T03:54:16;4.83;;;3.30;;
16922;SDS011;8578;50.938;13.556;2022-09-30T03:56:44;3.93;;;3.10;;
16922;SDS011;8578;50.938;13.556;2022-09-30T03:59:21;7.33;;;3.50;;
16922;SDS011;8578;50.938;13.556;2022-09-30T04:01:49;4.23;;;3.23;;
16922;SDS011;8578;50.938;13.556;2022-09-30T04:04:18;5.73;;;3.20;;
16922;SDS011;8578;50.938;13.556;2022-09-30T04:06:46;4.67;;;3.20;;
16922;SDS011;8578;50.938;13.556;2022-09-30T04:09:13;4.70;;;3.03;;
16922;SDS011;8578;50.938;13.556;2022-09-30T04:11:43;8.03;;;3.10;;
16922;SDS011;8578;50.938;13.556;2022-09-30T04:14:10;6.60;;;3.37;;
16922;SDS011;8578;50.938;13.556;2022-09-30T04:16:38;5.23;;;3.80;;
16922;SDS011;8578;50.938;13.556;2022-09-30T04:19:06;6.47;;;3.90;;
16922;SDS011;8578;50.938;13.556;2022-09-30T04:21:35;6.13;;;4.23;;
16922;SDS011;8578;50.938;13.556;2022-09-30T04:24:02;5.17;;;3.80;;
16922;SDS011;8578;50.938;13.556;2022-09-30T04:26:30;4.93;;;3.77;;
16922;SDS011;8578;50.938;13.556;2022-09-30T04:28:57;9.63;;;3.53;;
16922;SDS011;8578;50.938;13.556;2022-09-30T04:31:25;7.07;;;3.90;;
16922;SDS011;8578;50.938;13.556;2022-09-30T04:33:53;5.53;;;3.73;;
16922;SDS011;8578;50.938;13.556;2022-09-30T04:36:24;4.13;;;3.23;;
16922;SDS011;8578;50.938;13.556;2022-09-30T04:38:53;4.57;;;3.23;;
16922;SDS011;8578;50.938;13.556;2022-09-30T04:41:20;4.87;;;3.07;;
16922;SDS011;8578;50.938;13.556;2022-09-30T04:43:48;7.07;;;3.70;;
16922;SDS011;8578;50.938;13.556;2022-09-30T04:46:16;5.07;;;3.47;;
16922;SDS011;8578;50.938;13.556;2022-09-30T04:48:44;6.57;;;3.43;;
16922;SDS011;8578;50.938;13.556;2022-09-30T04:51:11;4.23;;;2.90;;
16922;SDS011;8578;50.938;13.556;2022-09-30T04:53:39;5.87;;;3.33;;
16922;SDS011;8578;50.938;13.556;2022-09-30T04:56:08;5.13;;;2.93;;
16922;SDS011;8578;50.938;13.556;2022-09-30T04:58:37;3.27;;;2.80;;
16922;SDS011;8578;50.938;13.556;2022-09-30T05:01:05;5.07;;;3.00;;
16922;SDS011;8578;50.938;13.556;2022-09-30T05:03:33;4.77;;;2.77;;
16922;SDS011;8578;50.938;13.556;2022-09-30T05:06:01;6.67;;;3.50;;
16922;SDS011;8578;50.938;13.556;2022-09-30T05:08:29;5.43;;;3.03;;
16922;SDS011;8578;50.938;13.556;2022-09-30T05:10:58;5.87;;;3.00;;
16922;SDS011;8578;50.938;13.556;2022-09-30T05:13:29;5.23;;;3.60;;
16922;SDS011;8578;50.938;13.556;2022-09-30T05:15:57;4.97;;;3.83;;
16922;SDS011;8578;50.938;13.556;2022-09-30T05:18:25;5.77;;;3.97;;
16922;SDS011;8578;50.938;13.556;2022-09-30T05:20:52;4.13;;;3.33;;
16922;SDS011;8578;50.938;13.556;2022-09-30T05:23:20;8.17;;;4.23;;
16922;SDS011;8578;50.938;13.556;2022-09-30T05:25:48;6.30;;;4.10;;
16922;SDS011;8578;50.938;13.556;2022-09-30T05:28:15;6.20;;;3.90;;
16922;SDS011;8578;50.938;13.556;2022-09-30T05:30:45;6.50;;;4.00;;
16922;SDS011;8578;50.938;13.556;2022-09-30T05:33:13;5.97;;;3.87;;
16922;SDS011;8578;50.938;13.556;2022-09-30T05:35:40;6.80;;;3.77;;
16922;SDS011;8578;50.938;13.556;2022-09-30T05:38:09;7.47;;;4.43;;
16922;SDS011;8578;50.938;13.556;2022-09-30T05:40:37;7.40;;;4.60;;
16922;SDS011;8578;50.938;13.556;2022-09-30T05:43:05;6.30;;;4.43;;
16922;SDS011;8578;50.938;13.556;2022-09-30T05:45:33;7.07;;;4.80;;
16922;SDS011;8578;50.938;13.556;2022-09-30T05:48:02;6.20;;;4.13;;
16922;SDS011;8578;50.938;13.556;2022-09-30T05:50:30;5.23;;;3.90;;
16922;SDS011;8578;50.938;13.556;2022-09-30T05:52:57;5.53;;;3.90;;
16922;SDS011;8578;50.938;13.556;2022-09-30T05:55:25;6.13;;;3.67;;
16922;SDS011;8578;50.938;13.556;2022-09-30T05:57:52;7.93;;;3.57;;
16922;SDS011;8578;50.938;13.556;2022-09-30T06:00:20;4.67;;;3.23;;
16922;SDS011;8578;50.938;13.556;2022-09-30T06:02:49;5.43;;;3.73;;
16922;SDS011;8578;50.938;13.556;2022-09-30T06:05:18;8.60;;;3.80;;
16922;SDS011;8578;50.938;13.556;2022-09-30T06:07:47;7.73;;;3.70;;
16922;SDS011;8578;50.938;13.556;2022-09-30T06:10:16;7.03;;;3.57;;
16922;SDS011;8578;50.938;13.556;2022-09-30T06:12:43;6.10;;;3.83;;
16922;SDS011;8578;50.938;13.556;2022-09-30T06:15:11;7.33;;;4.47;;
16922;SDS011;8578;50.938;13.556;2022-09-30T06:17:38;6.77;;;4.30;;
16922;SDS011;8578;50.938;13.556;2022-09-30T06:20:08;8.47;;;4.70;;
16922;SDS011;8578;50.938;13.556;2022-09-30T06:22:37;7.50;;;4.93;;
16922;SDS011;8578;50.938;13.556;2022-09-30T06:25:04;9.67;;;4.67;;
16922;SDS011;8578;50.938;13.556;2022-09-30T06:27:32;5.87;;;4.40;;
16922;SDS011;8578;50.938;13.556;2022-09-30T06:30:00;6.37;;;4.60;;
16922;SDS011;8578;50.938;13.556;2022-09-30T06:32:28;7.30;;;4.13;;
16922;SDS011;8578;50.938;13.556;2022-09-30T06:34:55;6.23;;;4.10;;
16922;SDS011;8578;50.938;13.556;2022-09-30T06:37:23;10.43;;;4.23;;
16922;SDS011;8578;50.938;13.556;2022-09-30T06:39:52;6.20;;;4.30;;
16922;SDS011;8578;50.938;13.556;2022-09-30T06:42:19;9.90;;;4.20;;
16922;SDS011;8578;50.938;13.556;2022-09-30T06:44:50;7.97;;;4.80;;
16922;SDS011;8578;50.938;13.556;2022-09-30T06:47:19;7.83;;;4.67;;
16922;SDS011;8578;50.938;13.556;2022-09-30T06:49:51;8.03;;;4.23;;
16922;SDS011;8578;50.938;13.556;2022-09-30T06:52:23;5.43;;;4.00;;
16922;SDS011;8578;50.938;13.556;2022-09-30T06:54:53;5.20;;;4.23;;
16922;SDS011;8578;50.938;13.556;2022-09-30T06:57:22;8.93;;;4.73;;
16922;SDS011;8578;50.938;13.556;2022-09-30T06:59:51;6.20;;;4.40;;
16922;SDS011;8578;50.938;13.556;2022-09-30T07:02:19;6.17;;;4.27;;
16922;SDS011;8578;50.938;13.556;2022-09-30T07:04:47;7.77;;;5.10;;
16922;SDS011;8578;50.938;13.556;2022-09-30T07:07:15;7.30;;;5.60;;
16922;SDS011;8578;50.938;13.556;2022-09-30T07:09:47;8.33;;;6.00;;
16922;SDS011;8578;50.938;13.556;2022-09-30T07:12:16;8.90;;;6.00;;
16922;SDS011;8578;50.938;13.556;2022-09-30T07:14:43;12.70;;;7.53;;
16922;SDS011;8578;50.938;13.556;2022-09-30T07:17:11;10.90;;;7.33;;
16922;SDS011;8578;50.938;13.556;2022-09-30T07:19:38;10.83;;;6.30;;
16922;SDS011;8578;50.938;13.556;2022-09-30T07:22:06;11.93;;;8.17;;
16922;SDS011;8578;50.938;13.556;2022-09-30T07:24:51;11.93;;;6.43;;
16922;SDS011;8578;50.938;13.556;2022-09-30T07:27:19;11.47;;;6.27;;
16922;SDS011;8578;50.938;13.556;2022-09-30T07:29:47;8.77;;;5.93;;
16922;SDS011;8578;50.938;13.556;2022-09-30T07:32:35;24.03;;;15.17;;
16922;SDS011;8578;50.938;13.556;2022-09-30T07:35:03;9.90;;;6.70;;
16922;SDS011;8578;50.938;13.556;2022-09-30T07:37:30;10.20;;;6.97;;
16922;SDS011;8578;50.938;13.556;2022-09-30T07:40:02;7.10;;;5.80;;
16922;SDS011;8578;50.938;13.556;2022-09-30T07:42:31;10.40;;;7.10;;
16922;SDS011;8578;50.938;13.556;2022-09-30T07:44:59;8.67;;;6.03;;
16922;SDS011;8578;50.938;13.556;2022-09-30T07:47:27;10.43;;;6.67;;
16922;SDS011;8578;50.938;13.556;2022-09-30T07:49:55;27.17;;;16.10;;
16922;SDS011;8578;50.938;13.556;2022-09-30T07:52:22;64.90;;;33.07;;
16922;SDS011;8578;50.938;13.556;2022-09-30T07:54:50;71.97;;;37.60;;
16922;SDS011;8578;50.938;13.556;2022-09-30T07:57:17;64.80;;;37.27;;
16922;SDS011;8578;50.938;13.556;2022-09-30T07:59:48;19.90;;;12.47;;
16922;SDS011;8578;50.938;13.556;2022-09-30T08:02:16;9.93;;;7.17;;
16922;SDS011;8578;50.938;13.556;2022-09-30T08:04:44;10.30;;;7.10;;
16922;SDS011;8578;50.938;13.556;2022-09-30T08:07:12;8.73;;;5.30;;
16922;SDS011;8578;50.938;13.556;2022-09-30T08:09:40;5.10;;;2.93;;
16922;SDS011;8578;50.938;13.556;2022-09-30T08:12:08;3.77;;;3.00;;
16922;SDS011;8578;50.938;13.556;2022-09-30T08:14:35;3.30;;;2.50;;
16922;SDS011;8578;50.938;13.556;2022-09-30T08:17:05;3.50;;;2.30;;
16922;SDS011;8578;50.938;13.556;2022-09-30T08:19:32;4.27;;;2.50;;
16922;SDS011;8578;50.938;13.556;2022-09-30T08:22:00;4.13;;;2.37;;
16922;SDS011;8578;50.938;13.556;2022-09-30T08:24:33;3.80;;;2.70;;
16922;SDS011;8578;50.938;13.556;2022-09-30T08:27:00;3.50;;;2.90;;
16922;SDS011;8578;50.938;13.556;2022-09-30T08:29:28;4.67;;;2.97;;
16922;SDS011;8578;50.938;13.556;2022-09-30T08:32:17;2.87;;;2.00;;
16922;SDS011;8578;50.938;13.556;2022-09-30T08:34:45;4.60;;;2.40;;
16922;SDS011;8578;50.938;13.556;2022-09-30T08:37:12;5.47;;;2.50;;
16922;SDS011;8578;50.938;13.556;2022-09-30T08:39:39;4.10;;;2.43;;
16922;SDS011;8578;50.938;13.556;2022-09-30T08:42:21;3.03;;;2.17;;
16922;SDS011;8578;50.938;13.556;2022-09-30T08:45:16;3.13;;;2.07;;
16922;SDS011;8578;50.938;13.556;2022-09-30T08:47:48;3.67;;;2.60;;
16922;SDS011;8578;50.938;13.556;2022-09-30T08:50:18;3.10;;;2.17;;
16922;SDS011;8578;50.938;13.556;2022-09-30T08:52:50;3.10;;;2.37;;
16922;SDS011;8578;50.938;13.556;2022-09-30T08:55:20;3.80;;;2.40;;
16922;SDS011;8578;50.938;13.556;2022-09-30T08:57:47;2.60;;;2.03;;
16922;SDS011;8578;50.938;13.556;2022-09-30T09:00:16;2.43;;;1.80;;
16922;SDS011;8578;50.938;13.556;2022-09-30T09:02:45;2.20;;;1.83;;
16922;SDS011;8578;50.938;13.556;2022-09-30T09:05:18;3.10;;;1.73;;
16922;SDS011;8578;50.938;13.556;2022-09-30T09:07:52;2.77;;;1.93;;
16922;SDS011;8578;50.938;13.556;2022-09-30T09:10:26;3.50;;;2.47;;
16922;SDS011;8578;50.938;13.556;2022-09-30T09:12:58;2.23;;;1.83;;
16922;SDS011;8578;50.938;13.556;2022-09-30T09:15:34;3.00;;;2.17;;
16922;SDS011;8578;50.938;13.556;2022-09-30T09:18:25;2.30;;;2.00;;
16922;SDS011;8578;50.938;13.556;2022-09-30T09:20:57;2.33;;;1.70;;
16922;SDS011;8578;50.938;13.556;2022-09-30T09:23:26;2.73;;;1.80;;
16922;SDS011;8578;50.938;13.556;2022-09-30T09:25:54;4.13;;;1.90;;
16922;SDS011;8578;50.938;13.556;2022-09-30T09:28:23;2.10;;;1.60;;
16922;SDS011;8578;50.938;13.556;2022-09-30T09:30:53;3.60;;;1.60;;
16922;SDS011;8578;50.938;13.556;2022-09-30T09:33:23;3.07;;;1.80;;
16922;SDS011;8578;50.938;13.556;2022-09-30T09:35:53;1.90;;;1.57;;
16922;SDS011;8578;50.938;13.556;2022-09-30T09:38:26;1.53;;;1.17;;
16922;SDS011;8578;50.938;13.556;2022-09-30T09:41:03;2.70;;;1.60;;
16922;SDS011;8578;50.938;13.556;2022-09-30T09:43:37;2.20;;;1.27;;
16922;SDS011;8578;50.938;13.556;2022-09-30T09:46:11;3.60;;;1.83;;
16922;SDS011;8578;50.938;13.556;2022-09-30T09:48:40;2.63;;;1.50;;
16922;SDS011;8578;50.938;13.556;2022-09-30T09:51:10;2.03;;;1.50;;
16922;SDS011;8578;50.938;13.556;2022-09-30T09:53:42;2.17;;;1.63;;
16922;SDS011;8578;50.938;13.556;2022-09-30T09:56:13;1.73;;;1.47;;
16922;SDS011;8578;50.938;13.556;2022-09-30T09:59:02;2.63;;;1.77;;
16922;SDS011;8578;50.938;13.556;2022-09-30T10:01:31;3.33;;;1.70;;
16922;SDS011;8578;50.938;13.556;2022-09-30T10:04:06;1.80;;;1.23;;
16922;SDS011;8578;50.938;13.556;2022-09-30T10:06:41;3.10;;;1.70;;
16922;SDS011;8578;50.938;13.556;2022-09-30T10:09:19;1.90;;;1.60;;
16922;SDS011;8578;50.938;13.556;2022-09-30T10:11:47;1.63;;;1.07;;
16922;SDS011;8578;50.938;13.556;2022-09-30T10:14:15;2.50;;;1.13;;
16922;SDS011;8578;50.938;13.556;2022-09-30T10:16:44;1.77;;;1.20;;
16922;SDS011;8578;50.938;13.556;2022-09-30T10:19:19;1.97;;;1.30;;
16922;SDS011;8578;50.938;13.556;2022-09-30T10:21:47;1.73;;;1.23;;
16922;SDS011;8578;50.938;13.556;2022-09-30T10:24:25;1.73;;;1.30;;
16922;SDS011;8578;50.938;13.556;2022-09-30T10:26:53;2.47;;;1.40;;
16922;SDS011;8578;50.938;13.556;2022-09-30T10:29:25;3.53;;;1.47;;
16922;SDS011;8578;50.938;13.556;2022-09-30T10:31:52;2.10;;;1.40;;
16922;SDS011;8578;50.938;13.556;2022-09-30T10:34:26;2.33;;;1.40;;
16922;SDS011;8578;50.938;13.556;2022-09-30T10:36:54;1.53;;;1.40;;
16922;SDS011;8578;50.938;13.556;2022-09-30T10:39:24;3.33;;;1.20;;
16922;SDS011;8578;50.938;13.556;2022-09-30T10:41:59;1.30;;;1.20;;
16922;SDS011;8578;50.938;13.556;2022-09-30T10:44:27;1.50;;;1.30;;
16922;SDS011;8578;50.938;13.556;2022-09-30T10:46:57;1.97;;;1.43;;
16922;SDS011;8578;50.938;13.556;2022-09-30T10:49:26;2.10;;;1.10;;
16922;SDS011;8578;50.938;13.556;2022-09-30T10:51:54;1.50;;;1.20;;
16922;SDS011;8578;50.938;13.556;2022-09-30T10:54:35;3.10;;;1.53;;
16922;SDS011;8578;50.938;13.556;2022-09-30T10:57:02;2.43;;;1.53;;
16922;SDS011;8578;50.938;13.556;2022-09-30T10:59:31;2.33;;;1.70;;
16922;SDS011;8578;50.938;13.556;2022-09-30T11:02:03;1.60;;;1.50;;
16922;SDS011;8578;50.938;13.556;2022-09-30T11:04:33;2.33;;;1.30;;
16922;SDS011;8578;50.938;13.556;2022-09-30T11:07:03;3.83;;;1.40;;
16922;SDS011;8578;50.938;13.556;2022-09-30T11:09:39;2.00;;;1.30;;
16922;SDS011;8578;50.938;13.556;2022-09-30T11:12:12;2.73;;;1.30;;
16922;SDS011;8578;50.938;13.556;2022-09-30T11:14:41;3.63;;;1.93;;
16922;SDS011;8578;50.938;13.556;2022-09-30T11:17:15;2.93;;;1.50;;
16922;SDS011;8578;50.938;13.556;2022-09-30T11:19:48;4.60;;;1.50;;
16922;SDS011;8578;50.938;13.556;2022-09-30T11:22:32;2.40;;;1.50;;
16922;SDS011;8578;50.938;13.556;2022-09-30T11:25:03;2.23;;;1.60;;
16922;SDS011;8578;50.938;13.556;2022-09-30T11:27:39;2.10;;;1.80;;
16922;SDS011;8578;50.938;13.556;2022-09-30T11:30:11;2.30;;;1.60;;
16922;SDS011;8578;50.938;13.556;2022-09-30T11:32:47;1.87;;;1.63;;
16922;SDS011;8578;50.938;13.556;2022-09-30T11:35:20;1.70;;;1.40;;
16922;SDS011;8578;50.938;13.556;2022-09-30T11:37:55;2.27;;;1.67;;
16922;SDS011;8578;50.938;13.556;2022-09-30T11:40:34;2.27;;;1.80;;
16922;SDS011;8578;50.938;13.556;2022-09-30T11:43:06;2.27;;;1.67;;
16922;SDS011;8578;50.938;13.556;2022-09-30T11:45:38;4.23;;;1.70;;
16922;SDS011;8578;50.938;13.556;2022-09-30T11:48:23;3.47;;;1.57;;
16922;SDS011;8578;50.938;13.556;2022-09-30T11:50:59;1.73;;;1.40;;
16922;SDS011;8578;50.938;13.556;2022-09-30T11:53:32;320.17;;;38.77;;
16922;SDS011;8578;50.938;13.556;2022-09-30T11:56:14;6.40;;;3.67;;
16922;SDS011;8578;50.938;13.556;2022-09-30T11:58:46;3.10;;;1.70;;
16922;SDS011;8578;50.938;13.556;2022-09-30T12:01:17;2.20;;;1.60;;
16922;SDS011;8578;50.938;13.556;2022-09-30T12:03:50;2.83;;;1.70;;
16922;SDS011;8578;50.938;13.556;2022-09-30T12:06:22;3.17;;;1.90;;
16922;SDS011;8578;50.938;13.556;2022-09-30T12:08:54;1.67;;;1.50;;
16922;SDS011;8578;50.938;13.556;2022-09-30T12:11:26;2.60;;;2.00;;
16922;SDS011;8578;50.938;13.556;2022-09-30T12:13:57;2.83;;;1.53;;
16922;SDS011;8578;50.938;13.556;2022-09-30T12:16:27;2.93;;;1.70;;
16922;SDS011;8578;50.938;13.556;2022-09-30T12:18:58;2.33;;;2.00;;
16922;SDS011;8578;50.938;13.556;2022-09-30T12:21:30;2.57;;;2.03;;
16922;SDS011;8578;50.938;13.556;2022-09-30T12:23:59;2.10;;;1.60;;
16922;SDS011;8578;50.938;13.556;2022-09-30T12:26:30;2.10;;;1.63;;
16922;SDS011;8578;50.938;13.556;2022-09-30T12:28:58;2.57;;;1.50;;
16922;SDS011;8578;50.938;13.556;2022-09-30T12:31:50;2.10;;;1.70;;
16922;SDS011;8578;50.938;13.556;2022-09-30T12:34:25;2.17;;;1.90;;
16922;SDS011;8578;50.938;13.556;2022-09-30T12:37:04;3.30;;;2.40;;
16922;SDS011;8578;50.938;13.556;2022-09-30T12:39:49;2.80;;;2.37;;
16922;SDS011;8578;50.938;13.556;2022-09-30T12:42:24;2.17;;;1.90;;
16922;SDS011;8578;50.938;13.556;2022-09-30T12:47:45;2.27;;;1.70;;
16922;SDS011;8578;50.938;13.556;2022-09-30T12:50:15;3.03;;;2.00;;
16922;SDS011;8578;50.938;13.556;2022-09-30T12:52:42;2.47;;;2.20;;
16922;SDS011;8578;50.938;13.556;2022-09-30T12:55:15;2.50;;;2.00;;
16922;SDS011;8578;50.938;13.556;2022-09-30T12:57:47;3.10;;;2.33;;
16922;SDS011;8578;50.938;13.556;2022-09-30T13:00:16;2.93;;;2.27;;
16922;SDS011;8578;50.938;13.556;2022-09-30T13:02:45;2.47;;;2.00;;
16922;SDS011;8578;50.938;13.556;2022-09-30T13:08:15;2.50;;;2.00;;
16922;SDS011;8578;50.938;13.556;2022-09-30T13:10:55;2.47;;;2.03;;
16922;SDS011;8578;50.938;13.556;2022-09-30T13:13:25;6.50;;;3.57;;
16922;SDS011;8578;50.938;13.556;2022-09-30T13:15:54;4.97;;;3.20;;
16922;SDS011;8578;50.938;13.556;2022-09-30T13:21:16;2.60;;;2.17;;
16922;SDS011;8578;50.938;13.556;2022-09-30T13:23:44;5.37;;;2.57;;
16922;SDS011;8578;50.938;13.556;2022-09-30T13:34:28;3.23;;;2.07;;
16922;SDS011;8578;50.938;13.556;2022-09-30T13:36:58;3.57;;;1.97;;
16922;SDS011;8578;50.938;13.556;2022-09-30T13:39:26;2.10;;;1.90;;
16922;SDS011;8578;50.938;13.556;2022-09-30T13:42:00;3.10;;;2.17;;
16922;SDS011;8578;50.938;13.556;2022-09-30T13:44:33;2.87;;;1.90;;
16922;SDS011;8578;50.938;13.556;2022-09-30T13:47:05;3.27;;;2.20;;
16922;SDS011;8578;50.938;13.556;2022-09-30T13:49:37;2.30;;;1.90;;
16922;SDS011;8578;50.938;13.556;2022-09-30T13:52:06;3.40;;;1.70;;
16922;SDS011;8578;50.938;13.556;2022-09-30T13:54:43;3.40;;;2.10;;
16922;SDS011;8578;50.938;13.556;2022-09-30T13:57:14;2.80;;;1.93;;
16922;SDS011;8578;50.938;13.556;2022-09-30T13:59:51;3.20;;;1.60;;
16922;SDS011;8578;50.938;13.556;2022-09-30T14:02:28;2.27;;;1.73;;
16922;SDS011;8578;50.938;13.556;2022-09-30T14:07:51;3.27;;;1.83;;
16922;SDS011;8578;50.938;13.556;2022-09-30T14:10:30;2.70;;;1.53;;
16922;SDS011;8578;50.938;13.556;2022-09-30T14:13:04;3.60;;;2.10;;
16922;SDS011;8578;50.938;13.556;2022-09-30T14:15:40;2.83;;;2.23;;
16922;SDS011;8578;50.938;13.556;2022-09-30T14:21:11;3.80;;;1.90;;
16922;SDS011;8578;50.938;13.556;2022-09-30T14:23:45;3.37;;;1.50;;
16922;SDS011;8578;50.938;13.556;2022-09-30T14:26:18;2.40;;;1.80;;
16922;SDS011;8578;50.938;13.556;2022-09-30T14:28:53;3.83;;;2.03;;
16922;SDS011;8578;50.938;13.556;2022-09-30T14:31:26;2.70;;;2.00;;
16922;SDS011;8578;50.938;13.556;2022-09-30T14:33:55;6.87;;;2.20;;
16922;SDS011;8578;50.938;13.556;2022-09-30T14:36:22;6.63;;;2.10;;
16922;SDS011;8578;50.938;13.556;2022-09-30T14:38:51;2.37;;;1.80;;
16922;SDS011;8578;50.938;13.556;2022-09-30T14:41:20;2.73;;;1.97;;
16922;SDS011;8578;50.938;13.556;2022-09-30T14:43:49;2.80;;;2.03;;
16922;SDS011;8578;50.938;13.556;2022-09-30T14:46:22;2.37;;;1.80;;
16922;SDS011;8578;50.938;13.556;2022-09-30T14:48:53;2.00;;;1.43;;
16922;SDS011;8578;50.938;13.556;2022-09-30T14:51:22;1.90;;;1.57;;
16922;SDS011;8578;50.938;13.556;2022-09-30T14:53:51;2.90;;;1.90;;
16922;SDS011;8578;50.938;13.556;2022-09-30T14:56:20;2.40;;;1.70;;
16922;SDS011;8578;50.938;13.556;2022-09-30T14:58:48;2.20;;;1.73;;
16922;SDS011;8578;50.938;13.556;2022-09-30T15:01:17;2.77;;;2.10;;
16922;SDS011;8578;50.938;13.556;2022-09-30T15:03:51;2.13;;;1.90;;
16922;SDS011;8578;50.938;13.556;2022-09-30T15:06:22;4.27;;;2.40;;
16922;SDS011;8578;50.938;13.556;2022-09-30T15:08:52;3.10;;;2.30;;
16922;SDS011;8578;50.938;13.556;2022-09-30T15:11:25;4.20;;;2.33;;
16922;SDS011;8578;50.938;13.556;2022-09-30T15:13:56;5.60;;;2.27;;
16922;SDS011;8578;50.938;13.556;2022-09-30T15:16:24;2.53;;;1.80;;
16922;SDS011;8578;50.938;13.556;2022-09-30T15:18:52;3.77;;;1.90;;
16922;SDS011;8578;50.938;13.556;2022-09-30T15:21:22;3.10;;;1.80;;
16922;SDS011;8578;50.938;13.556;2022-09-30T15:23:51;4.20;;;1.70;;
16922;SDS011;8578;50.938;13.556;2022-09-30T15:26:20;2.13;;;1.70;;
16922;SDS011;8578;50.938;13.556;2022-09-30T15:28:47;1.70;;;1.60;;
16922;SDS011;8578;50.938;13.556;2022-09-30T15:31:20;4.87;;;2.07;;
16922;SDS011;8578;50.938;13.556;2022-09-30T15:33:59;3.20;;;2.30;;